Cook, MN (55723)

2:56 PM CDT on September 17, 2014 (GMT -0500)
Cook Municipal | Change Station
CLOSE
Current Station
Airport
Location: Cook,
Elevation: 1325 ft
Nearby Weather Stations

Elev 1325 ft 47.82 °N, 92.69 °W | Updated 21 minutes ago

Partly Cloudy
Partly Cloudy
61 °F
Feels Like 61 °F
N
8
Wind Variable Wind from NNE

Today
High -- | Low -- °F
--% Chance of Precip.
Yesterday
High -- | Low -- °F
Precip. -- in
6:51 AM 7:19 PM
Waning Crescent, 33% visible
Pressure 30.00 in
Visibility 10.0 miles
Clouds Mostly Cloudy 3300 ft
Dew Point 45 °F
Humidity 55%
Rainfall 0.00 in
Snow Depth Not available.
UV 3 out of 12
Pollen 1.00 out of 12
Air Quality Not available.
Flu Activity Not available.
METAR KCQM 171935Z AUTO 03007KT 10SM BKN033 16/07 A3000 RMK AO2

More Conditions Fewer Conditions

Pressure 30.00 in
Visibility 10.0 miles
Clouds Mostly Cloudy 3300 ft
Dew Point 45 °F
Humidity 55%
Rainfall 0.00 in
Snow Depth Not available.
UV 3 out of 12
Pollen 1.00 out of 12
Air Quality Not available.
Flu Activity Not available.
METAR KCQM 171935Z AUTO 03007KT 10SM BKN033 16/07 A3000 RMK AO2

More Conditions Fewer Conditions

10-Day Weather Forecast

Almanac

Astronomy

Sep. 17, 2014 Rise Set
Actual Time 6:51 AM CDT 7:19 PM CDT
Civil Twilight 6:19 AM CDT 7:50 PM CDT
Nautical Twilight 5:43 AM CDT 8:26 PM CDT
Astronomical Twilight 5:04 AM CDT 9:05 PM CDT
Moon 12:32 AM CDT 3:47 PM CDT
Length of Visible Light 13h 30m
Length of Day
12h 28m
Tomorrow will be 3m 26s shorter.
Waning Crescent, 33% of the Moon is Illuminated
Today
Waning Crescent
Sep 24
New
Oct 1
First Quarter
Oct 8
Full
Oct 15
Last Quarter

Today's Extremes

State Highs State Lows

Community

WunderPhotos

Upload Photos

1,754,149 photos uploaded!

Nearby

Snow Depth

Station Depth Elevation
No new snow has been reported.

Earthquake Activity

City Distance Mag. Time & Date
No recent earthquake activity has been reported nearby.
Minimum magnitude displayed is 2.5.

Coastal Water Temperatures

Place Temperature
No Stations Reporting

Nearby Weather Stations